Messwerte Kigoma

Temperatur

Temperatur
°C
1614801600 23.00 23.00 21
1614805200 0.00 0.00 21
1614808800 1.00 1.00
1614812400 2.00 2.00
1614816000 3.00 3.00
1614819600 4.00 4.00
1614823200 5.00 5.00
1614826800 6.00 6.00 20
1614830400 7.00 7.00 21
1614834000 8.00 8.00 21
1614837600 9.00 9.00 21
1614841200 10.00 10.00 23
1614844800 11.00 11.00 25
1614848400 12.00 12.00 26
1614852000 13.00 13.00 28
1614855600 14.00 14.00 27
1614859200 15.00 15.00 28
1614862800 16.00 16.00 28
1614866400 17.00 17.00 27
1614870000 18.00 18.00 27
1614873600 19.00 19.00 26
1614877200 20.00 20.00
1614880800 21.00 21.00 24
1614884400 22.00 22.00 24

Aktuellste Messwerte

Wettercharakter
Wetter: meist klar
Temperatur
24 °C
Feuchtigkeit
90 %
Wind
0 km/h, -
Luftdruck
1012 hPa
Messzeit: 4. März 2021, 22.00Datenquelle: METAR

Weitere Messstationen in der Nähe

Messstation Temperatur Entfernung
Kigali 20 °C 328 km
Tabora - 355 km
Sumbawanga - 409 km
Mwanza - 453 km
Bukoba - 463 km

Wind

Windrichtung Böen Mittelwind
° km/h km/h
1614801600 23.00 22.00 - 23.00 40° 10
1614805200 0.00 23.00 - 0.00 40° 10
1614808800 1.00 0.00 - 1.00
1614812400 2.00 1.00 - 2.00
1614816000 3.00 2.00 - 3.00
1614819600 4.00 3.00 - 4.00
1614823200 5.00 4.00 - 5.00
1614826800 6.00 5.00 - 6.00 0
1614830400 7.00 6.00 - 7.00 0
1614834000 8.00 7.00 - 8.00 0
1614837600 9.00 8.00 - 9.00 0
1614841200 10.00 9.00 - 10.00 70° 15
1614844800 11.00 10.00 - 11.00 70° 15
1614848400 12.00 11.00 - 12.00 0
1614852000 13.00 12.00 - 13.00 0
1614855600 14.00 13.00 - 14.00 210° 15
1614859200 15.00 14.00 - 15.00 210° 15
1614862800 16.00 15.00 - 16.00 210° 10
1614866400 17.00 16.00 - 17.00 220° 15
1614870000 18.00 17.00 - 18.00 0
1614873600 19.00 18.00 - 19.00 300° 10
1614877200 20.00 19.00 - 20.00
1614880800 21.00 20.00 - 21.00 0
1614884400 22.00 21.00 - 22.00 0

Ihre Wetterstation

Fehlt Ihre Wetterstation auf unserem Portal?

Schreiben Sie an network@meteonews.ch